sensor_id;sensor_type;location;lat;lon;timestamp;temperature;humidity
15231;DHT22;32569;51.762;8.564;2024-03-07T00:00:31;5.40;99.90
15231;DHT22;32569;51.762;8.564;2024-03-07T00:02:57;5.30;99.90
15231;DHT22;32569;51.762;8.564;2024-03-07T00:05:25;5.30;99.90
15231;DHT22;32569;51.762;8.564;2024-03-07T00:07:52;5.30;99.90
15231;DHT22;32569;51.762;8.564;2024-03-07T00:10:19;5.30;99.90
15231;DHT22;32569;51.762;8.564;2024-03-07T00:12:46;5.30;99.90
15231;DHT22;32569;51.762;8.564;2024-03-07T00:15:14;5.30;99.90
15231;DHT22;32569;51.762;8.564;2024-03-07T00:17:48;5.20;99.90
15231;DHT22;32569;51.762;8.564;2024-03-07T00:20:15;5.20;99.90
15231;DHT22;32569;51.762;8.564;2024-03-07T00:22:45;5.10;99.90
15231;DHT22;32569;51.762;8.564;2024-03-07T00:25:11;5.10;99.90
15231;DHT22;32569;51.762;8.564;2024-03-07T00:27:40;5.00;99.90
15231;DHT22;32569;51.762;8.564;2024-03-07T00:30:07;5.00;99.90
15231;DHT22;32569;51.762;8.564;2024-03-07T00:32:34;5.10;99.90
15231;DHT22;32569;51.762;8.564;2024-03-07T00:35:07;5.00;99.90
15231;DHT22;32569;51.762;8.564;2024-03-07T00:37:34;4.90;99.90
15231;DHT22;32569;51.762;8.564;2024-03-07T00:40:01;4.90;99.90
15231;DHT22;32569;51.762;8.564;2024-03-07T00:42:28;4.90;99.90
15231;DHT22;32569;51.762;8.564;2024-03-07T00:44:55;4.90;99.90
15231;DHT22;32569;51.762;8.564;2024-03-07T00:47:21;4.80;99.90
15231;DHT22;32569;51.762;8.564;2024-03-07T00:49:48;4.80;99.90
15231;DHT22;32569;51.762;8.564;2024-03-07T00:52:16;4.70;99.90
15231;DHT22;32569;51.762;8.564;2024-03-07T00:54:43;4.70;99.90
15231;DHT22;32569;51.762;8.564;2024-03-07T00:57:09;4.60;99.90
15231;DHT22;32569;51.762;8.564;2024-03-07T00:59:36;4.60;99.90
15231;DHT22;32569;51.762;8.564;2024-03-07T01:02:03;4.60;99.90
15231;DHT22;32569;51.762;8.564;2024-03-07T01:04:30;4.60;99.90
15231;DHT22;32569;51.762;8.564;2024-03-07T01:06:58;4.50;99.90
15231;DHT22;32569;51.762;8.564;2024-03-07T01:09:27;4.40;99.90
15231;DHT22;32569;51.762;8.564;2024-03-07T01:11:57;4.50;99.90
15231;DHT22;32569;51.762;8.564;2024-03-07T01:14:25;4.50;99.90
15231;DHT22;32569;51.762;8.564;2024-03-07T01:16:51;4.60;99.90
15231;DHT22;32569;51.762;8.564;2024-03-07T01:19:19;4.60;99.90
15231;DHT22;32569;51.762;8.564;2024-03-07T01:21:45;4.50;99.90
15231;DHT22;32569;51.762;8.564;2024-03-07T01:24:12;4.50;99.90
15231;DHT22;32569;51.762;8.564;2024-03-07T01:26:44;4.50;99.90
15231;DHT22;32569;51.762;8.564;2024-03-07T01:29:11;4.50;99.90
15231;DHT22;32569;51.762;8.564;2024-03-07T01:31:39;4.40;99.90
15231;DHT22;32569;51.762;8.564;2024-03-07T01:34:08;4.30;99.90
15231;DHT22;32569;51.762;8.564;2024-03-07T01:36:35;4.30;99.90
15231;DHT22;32569;51.762;8.564;2024-03-07T01:39:02;4.20;99.90
15231;DHT22;32569;51.762;8.564;2024-03-07T01:41:29;4.10;99.90
15231;DHT22;32569;51.762;8.564;2024-03-07T01:43:57;4.10;99.90
15231;DHT22;32569;51.762;8.564;2024-03-07T01:46:24;4.00;99.90
15231;DHT22;32569;51.762;8.564;2024-03-07T01:48:51;4.00;99.90
15231;DHT22;32569;51.762;8.564;2024-03-07T01:51:18;4.00;99.90
15231;DHT22;32569;51.762;8.564;2024-03-07T01:53:47;4.00;99.90
15231;DHT22;32569;51.762;8.564;2024-03-07T01:56:13;4.00;99.90
15231;DHT22;32569;51.762;8.564;2024-03-07T01:58:41;3.90;99.90
15231;DHT22;32569;51.762;8.564;2024-03-07T02:01:09;3.90;99.90
15231;DHT22;32569;51.762;8.564;2024-03-07T02:03:36;3.90;99.90
15231;DHT22;32569;51.762;8.564;2024-03-07T02:06:03;3.90;99.90
15231;DHT22;32569;51.762;8.564;2024-03-07T02:08:30;3.80;99.90
15231;DHT22;32569;51.762;8.564;2024-03-07T02:10:57;3.70;99.90
15231;DHT22;32569;51.762;8.564;2024-03-07T02:13:24;3.80;99.90
15231;DHT22;32569;51.762;8.564;2024-03-07T02:15:51;3.80;99.90
15231;DHT22;32569;51.762;8.564;2024-03-07T02:18:20;3.80;99.90
15231;DHT22;32569;51.762;8.564;2024-03-07T02:20:48;3.70;99.90
15231;DHT22;32569;51.762;8.564;2024-03-07T02:23:14;3.70;99.90
15231;DHT22;32569;51.762;8.564;2024-03-07T02:25:41;3.70;99.90
15231;DHT22;32569;51.762;8.564;2024-03-07T02:28:08;3.60;99.90
15231;DHT22;32569;51.762;8.564;2024-03-07T02:30:35;3.70;99.90
15231;DHT22;32569;51.762;8.564;2024-03-07T02:33:02;3.60;99.90
15231;DHT22;32569;51.762;8.564;2024-03-07T02:35:32;3.50;99.90
15231;DHT22;32569;51.762;8.564;2024-03-07T02:38:02;3.50;99.90
15231;DHT22;32569;51.762;8.564;2024-03-07T02:40:29;3.50;99.90
15231;DHT22;32569;51.762;8.564;2024-03-07T02:42:56;3.40;99.90
15231;DHT22;32569;51.762;8.564;2024-03-07T02:45:22;3.40;99.90
15231;DHT22;32569;51.762;8.564;2024-03-07T02:47:49;3.30;99.90
15231;DHT22;32569;51.762;8.564;2024-03-07T02:50:17;3.30;99.90
15231;DHT22;32569;51.762;8.564;2024-03-07T02:52:43;3.20;99.90
15231;DHT22;32569;51.762;8.564;2024-03-07T02:55:11;3.30;99.90
15231;DHT22;32569;51.762;8.564;2024-03-07T02:57:38;3.40;99.90
15231;DHT22;32569;51.762;8.564;2024-03-07T03:00:07;3.40;99.90
15231;DHT22;32569;51.762;8.564;2024-03-07T03:02:45;3.40;99.90
15231;DHT22;32569;51.762;8.564;2024-03-07T03:05:12;3.40;99.90
15231;DHT22;32569;51.762;8.564;2024-03-07T03:07:39;3.30;99.90
15231;DHT22;32569;51.762;8.564;2024-03-07T03:10:07;3.40;99.90
15231;DHT22;32569;51.762;8.564;2024-03-07T03:12:36;3.30;99.90
15231;DHT22;32569;51.762;8.564;2024-03-07T03:15:04;3.30;99.90
15231;DHT22;32569;51.762;8.564;2024-03-07T03:17:31;3.30;99.90
15231;DHT22;32569;51.762;8.564;2024-03-07T03:19:59;3.20;99.90
15231;DHT22;32569;51.762;8.564;2024-03-07T03:22:26;3.30;99.90
15231;DHT22;32569;51.762;8.564;2024-03-07T03:24:53;3.20;99.90
15231;DHT22;32569;51.762;8.564;2024-03-07T03:27:21;3.10;99.90
15231;DHT22;32569;51.762;8.564;2024-03-07T03:29:48;3.10;99.90
15231;DHT22;32569;51.762;8.564;2024-03-07T03:32:16;3.00;99.90
15231;DHT22;32569;51.762;8.564;2024-03-07T03:34:43;3.10;99.90
15231;DHT22;32569;51.762;8.564;2024-03-07T03:37:09;3.00;99.90
15231;DHT22;32569;51.762;8.564;2024-03-07T03:39:39;3.00;99.90
15231;DHT22;32569;51.762;8.564;2024-03-07T03:42:08;3.00;99.90
15231;DHT22;32569;51.762;8.564;2024-03-07T03:44:35;2.90;99.90
15231;DHT22;32569;51.762;8.564;2024-03-07T03:47:03;2.90;99.90
15231;DHT22;32569;51.762;8.564;2024-03-07T03:49:30;2.90;99.90
15231;DHT22;32569;51.762;8.564;2024-03-07T03:52:00;2.80;99.90
15231;DHT22;32569;51.762;8.564;2024-03-07T03:54:26;2.90;99.90
15231;DHT22;32569;51.762;8.564;2024-03-07T03:56:59;2.90;99.90
15231;DHT22;32569;51.762;8.564;2024-03-07T03:59:26;2.90;99.90
15231;DHT22;32569;51.762;8.564;2024-03-07T04:01:53;2.90;99.90
15231;DHT22;32569;51.762;8.564;2024-03-07T04:04:20;2.90;99.90
15231;DHT22;32569;51.762;8.564;2024-03-07T04:06:48;2.80;99.90
15231;DHT22;32569;51.762;8.564;2024-03-07T04:09:14;2.90;99.90
15231;DHT22;32569;51.762;8.564;2024-03-07T04:11:41;2.70;99.90
15231;DHT22;32569;51.762;8.564;2024-03-07T04:14:10;2.70;99.90
15231;DHT22;32569;51.762;8.564;2024-03-07T04:16:37;2.70;99.90
15231;DHT22;32569;51.762;8.564;2024-03-07T04:19:04;2.60;99.90
15231;DHT22;32569;51.762;8.564;2024-03-07T04:21:34;2.70;99.90
15231;DHT22;32569;51.762;8.564;2024-03-07T04:24:00;2.70;99.90
15231;DHT22;32569;51.762;8.564;2024-03-07T04:26:28;2.70;99.90
15231;DHT22;32569;51.762;8.564;2024-03-07T04:28:54;2.60;99.90
15231;DHT22;32569;51.762;8.564;2024-03-07T04:31:21;2.60;99.90
15231;DHT22;32569;51.762;8.564;2024-03-07T04:33:48;2.60;99.90
15231;DHT22;32569;51.762;8.564;2024-03-07T04:36:16;2.50;99.90
15231;DHT22;32569;51.762;8.564;2024-03-07T04:38:44;2.50;99.90
15231;DHT22;32569;51.762;8.564;2024-03-07T04:41:11;2.50;99.90
15231;DHT22;32569;51.762;8.564;2024-03-07T04:43:40;2.40;99.90
15231;DHT22;32569;51.762;8.564;2024-03-07T04:46:08;2.40;99.90
15231;DHT22;32569;51.762;8.564;2024-03-07T04:48:33;2.40;99.90
15231;DHT22;32569;51.762;8.564;2024-03-07T04:51:00;2.40;99.90
15231;DHT22;32569;51.762;8.564;2024-03-07T04:53:27;2.40;99.90
15231;DHT22;32569;51.762;8.564;2024-03-07T04:55:57;2.40;99.90
15231;DHT22;32569;51.762;8.564;2024-03-07T04:58:24;2.30;99.90
15231;DHT22;32569;51.762;8.564;2024-03-07T05:00:50;2.30;99.90
15231;DHT22;32569;51.762;8.564;2024-03-07T05:03:17;2.20;99.90
15231;DHT22;32569;51.762;8.564;2024-03-07T05:05:43;2.20;99.90
15231;DHT22;32569;51.762;8.564;2024-03-07T05:08:11;2.20;99.90
15231;DHT22;32569;51.762;8.564;2024-03-07T05:10:37;2.20;99.90
15231;DHT22;32569;51.762;8.564;2024-03-07T05:13:06;2.30;99.90
15231;DHT22;32569;51.762;8.564;2024-03-07T05:15:35;2.40;99.90
15231;DHT22;32569;51.762;8.564;2024-03-07T05:18:02;2.50;99.90
15231;DHT22;32569;51.762;8.564;2024-03-07T05:20:30;2.50;99.90
15231;DHT22;32569;51.762;8.564;2024-03-07T05:22:57;2.70;99.90
15231;DHT22;32569;51.762;8.564;2024-03-07T05:25:24;2.70;99.90
15231;DHT22;32569;51.762;8.564;2024-03-07T05:27:51;2.70;99.90
15231;DHT22;32569;51.762;8.564;2024-03-07T05:30:20;2.80;99.90
15231;DHT22;32569;51.762;8.564;2024-03-07T05:32:48;2.80;99.90
15231;DHT22;32569;51.762;8.564;2024-03-07T05:35:15;2.70;99.90
15231;DHT22;32569;51.762;8.564;2024-03-07T05:37:42;2.90;99.90
15231;DHT22;32569;51.762;8.564;2024-03-07T05:40:12;2.90;99.90
15231;DHT22;32569;51.762;8.564;2024-03-07T05:42:39;3.00;99.90
15231;DHT22;32569;51.762;8.564;2024-03-07T05:45:06;3.00;99.90
15231;DHT22;32569;51.762;8.564;2024-03-07T05:47:35;3.00;99.90
15231;DHT22;32569;51.762;8.564;2024-03-07T05:50:02;3.00;99.90
15231;DHT22;32569;51.762;8.564;2024-03-07T05:52:29;3.10;99.90
15231;DHT22;32569;51.762;8.564;2024-03-07T05:54:55;3.00;99.90
15231;DHT22;32569;51.762;8.564;2024-03-07T05:57:22;3.10;99.90
15231;DHT22;32569;51.762;8.564;2024-03-07T05:59:49;3.20;99.90
15231;DHT22;32569;51.762;8.564;2024-03-07T06:02:15;3.20;99.90
15231;DHT22;32569;51.762;8.564;2024-03-07T06:04:44;3.20;99.90
15231;DHT22;32569;51.762;8.564;2024-03-07T06:07:11;3.20;99.90
15231;DHT22;32569;51.762;8.564;2024-03-07T06:09:38;3.20;99.90
15231;DHT22;32569;51.762;8.564;2024-03-07T06:12:04;3.20;99.90
15231;DHT22;32569;51.762;8.564;2024-03-07T06:14:37;3.30;99.90
15231;DHT22;32569;51.762;8.564;2024-03-07T06:17:03;3.40;99.90
15231;DHT22;32569;51.762;8.564;2024-03-07T06:19:30;3.40;99.90
15231;DHT22;32569;51.762;8.564;2024-03-07T06:21:58;3.40;99.90
15231;DHT22;32569;51.762;8.564;2024-03-07T06:24:26;3.40;99.90
15231;DHT22;32569;51.762;8.564;2024-03-07T06:26:55;3.50;99.90
15231;DHT22;32569;51.762;8.564;2024-03-07T06:29:26;3.50;99.90
15231;DHT22;32569;51.762;8.564;2024-03-07T06:31:53;3.50;99.90
15231;DHT22;32569;51.762;8.564;2024-03-07T06:34:20;3.60;99.90
15231;DHT22;32569;51.762;8.564;2024-03-07T06:36:46;3.60;99.90
15231;DHT22;32569;51.762;8.564;2024-03-07T06:39:14;3.60;99.90
15231;DHT22;32569;51.762;8.564;2024-03-07T06:41:41;3.70;99.90
15231;DHT22;32569;51.762;8.564;2024-03-07T06:44:08;3.60;99.90
15231;DHT22;32569;51.762;8.564;2024-03-07T06:46:42;3.70;99.90
15231;DHT22;32569;51.762;8.564;2024-03-07T06:49:11;3.70;99.90
15231;DHT22;32569;51.762;8.564;2024-03-07T06:51:37;3.80;99.90
15231;DHT22;32569;51.762;8.564;2024-03-07T06:54:04;3.80;99.90
15231;DHT22;32569;51.762;8.564;2024-03-07T06:56:33;3.80;99.90
15231;DHT22;32569;51.762;8.564;2024-03-07T06:59:00;3.80;99.90
15231;DHT22;32569;51.762;8.564;2024-03-07T07:01:29;3.80;99.90
15231;DHT22;32569;51.762;8.564;2024-03-07T07:03:56;3.90;99.90
15231;DHT22;32569;51.762;8.564;2024-03-07T07:06:24;3.90;99.90
15231;DHT22;32569;51.762;8.564;2024-03-07T07:08:53;3.90;99.90
15231;DHT22;32569;51.762;8.564;2024-03-07T07:11:19;3.90;99.90
15231;DHT22;32569;51.762;8.564;2024-03-07T07:13:47;3.90;99.90
15231;DHT22;32569;51.762;8.564;2024-03-07T07:16:15;4.00;99.90
15231;DHT22;32569;51.762;8.564;2024-03-07T07:18:44;4.10;99.90
15231;DHT22;32569;51.762;8.564;2024-03-07T07:21:10;4.20;99.90
15231;DHT22;32569;51.762;8.564;2024-03-07T07:23:41;4.20;99.90
15231;DHT22;32569;51.762;8.564;2024-03-07T07:26:07;4.30;99.90
15231;DHT22;32569;51.762;8.564;2024-03-07T07:28:34;4.30;99.90
15231;DHT22;32569;51.762;8.564;2024-03-07T07:31:03;4.30;99.90
15231;DHT22;32569;51.762;8.564;2024-03-07T07:33:30;4.40;99.90
15231;DHT22;32569;51.762;8.564;2024-03-07T07:35:57;4.40;99.90
15231;DHT22;32569;51.762;8.564;2024-03-07T07:38:24;4.50;99.90
15231;DHT22;32569;51.762;8.564;2024-03-07T07:40:51;4.50;99.90
15231;DHT22;32569;51.762;8.564;2024-03-07T07:43:18;4.70;99.90
15231;DHT22;32569;51.762;8.564;2024-03-07T07:45:44;4.70;99.90
15231;DHT22;32569;51.762;8.564;2024-03-07T07:48:12;4.80;99.90
15231;DHT22;32569;51.762;8.564;2024-03-07T07:50:42;4.90;99.90
15231;DHT22;32569;51.762;8.564;2024-03-07T07:53:08;4.90;99.90
15231;DHT22;32569;51.762;8.564;2024-03-07T07:55:36;4.90;99.90
15231;DHT22;32569;51.762;8.564;2024-03-07T07:58:03;5.00;99.90
15231;DHT22;32569;51.762;8.564;2024-03-07T08:00:30;5.00;99.90
15231;DHT22;32569;51.762;8.564;2024-03-07T08:02:59;4.90;99.90
15231;DHT22;32569;51.762;8.564;2024-03-07T08:05:28;5.00;99.90
15231;DHT22;32569;51.762;8.564;2024-03-07T08:07:56;5.10;99.90
15231;DHT22;32569;51.762;8.564;2024-03-07T08:10:24;5.10;99.90
15231;DHT22;32569;51.762;8.564;2024-03-07T08:12:52;5.10;99.90
15231;DHT22;32569;51.762;8.564;2024-03-07T08:15:19;5.20;99.90
15231;DHT22;32569;51.762;8.564;2024-03-07T08:17:47;5.20;99.90
15231;DHT22;32569;51.762;8.564;2024-03-07T08:20:15;5.30;99.90
15231;DHT22;32569;51.762;8.564;2024-03-07T08:22:45;5.40;99.90
15231;DHT22;32569;51.762;8.564;2024-03-07T08:25:12;5.50;99.90
15231;DHT22;32569;51.762;8.564;2024-03-07T08:27:40;5.60;99.90
15231;DHT22;32569;51.762;8.564;2024-03-07T08:30:09;5.70;99.90
15231;DHT22;32569;51.762;8.564;2024-03-07T08:32:38;5.70;99.90
15231;DHT22;32569;51.762;8.564;2024-03-07T08:35:05;5.70;99.90
15231;DHT22;32569;51.762;8.564;2024-03-07T08:37:35;5.70;99.90
15231;DHT22;32569;51.762;8.564;2024-03-07T08:40:05;5.60;99.90
15231;DHT22;32569;51.762;8.564;2024-03-07T08:42:33;5.70;99.90
15231;DHT22;32569;51.762;8.564;2024-03-07T08:45:00;5.70;99.90
15231;DHT22;32569;51.762;8.564;2024-03-07T08:47:29;5.80;99.90
15231;DHT22;32569;51.762;8.564;2024-03-07T08:49:56;5.90;99.90
15231;DHT22;32569;51.762;8.564;2024-03-07T08:52:23;5.90;99.90
15231;DHT22;32569;51.762;8.564;2024-03-07T08:54:49;5.90;99.90
15231;DHT22;32569;51.762;8.564;2024-03-07T08:57:17;6.00;99.90
15231;DHT22;32569;51.762;8.564;2024-03-07T08:59:45;6.00;99.90
15231;DHT22;32569;51.762;8.564;2024-03-07T09:02:12;6.10;99.90
15231;DHT22;32569;51.762;8.564;2024-03-07T09:04:39;6.10;99.90
15231;DHT22;32569;51.762;8.564;2024-03-07T09:07:06;6.30;99.90
15231;DHT22;32569;51.762;8.564;2024-03-07T09:09:32;6.20;99.90
15231;DHT22;32569;51.762;8.564;2024-03-07T09:12:00;6.30;99.90
15231;DHT22;32569;51.762;8.564;2024-03-07T09:14:29;6.30;99.90
15231;DHT22;32569;51.762;8.564;2024-03-07T09:16:56;6.20;99.90
15231;DHT22;32569;51.762;8.564;2024-03-07T09:19:23;6.20;99.90
15231;DHT22;32569;51.762;8.564;2024-03-07T09:21:51;6.30;99.90
15231;DHT22;32569;51.762;8.564;2024-03-07T09:24:18;6.50;99.90
15231;DHT22;32569;51.762;8.564;2024-03-07T09:26:47;6.60;99.90
15231;DHT22;32569;51.762;8.564;2024-03-07T09:29:13;6.70;99.90
15231;DHT22;32569;51.762;8.564;2024-03-07T09:31:41;6.70;99.90
15231;DHT22;32569;51.762;8.564;2024-03-07T09:34:11;6.80;99.90
15231;DHT22;32569;51.762;8.564;2024-03-07T09:36:38;6.90;99.90
15231;DHT22;32569;51.762;8.564;2024-03-07T09:39:07;6.90;99.90
15231;DHT22;32569;51.762;8.564;2024-03-07T09:41:33;6.90;99.90
15231;DHT22;32569;51.762;8.564;2024-03-07T09:44:01;6.90;99.90
15231;DHT22;32569;51.762;8.564;2024-03-07T09:46:29;6.80;99.90
15231;DHT22;32569;51.762;8.564;2024-03-07T09:48:58;6.80;99.90
15231;DHT22;32569;51.762;8.564;2024-03-07T09:51:24;6.90;99.90
15231;DHT22;32569;51.762;8.564;2024-03-07T09:53:53;6.80;99.90
15231;DHT22;32569;51.762;8.564;2024-03-07T09:56:24;6.80;99.90
15231;DHT22;32569;51.762;8.564;2024-03-07T09:58:52;7.00;99.90
15231;DHT22;32569;51.762;8.564;2024-03-07T10:01:21;7.10;99.90
15231;DHT22;32569;51.762;8.564;2024-03-07T10:03:48;7.10;99.90
15231;DHT22;32569;51.762;8.564;2024-03-07T10:06:19;7.10;99.90
15231;DHT22;32569;51.762;8.564;2024-03-07T10:08:47;7.00;99.90
15231;DHT22;32569;51.762;8.564;2024-03-07T10:11:14;7.00;99.90
15231;DHT22;32569;51.762;8.564;2024-03-07T10:13:41;7.10;99.90
15231;DHT22;32569;51.762;8.564;2024-03-07T10:16:10;7.20;99.90
15231;DHT22;32569;51.762;8.564;2024-03-07T10:18:42;7.20;99.90
15231;DHT22;32569;51.762;8.564;2024-03-07T10:21:15;7.40;99.90
15231;DHT22;32569;51.762;8.564;2024-03-07T10:23:46;7.50;99.90
15231;DHT22;32569;51.762;8.564;2024-03-07T10:26:13;7.60;99.90
15231;DHT22;32569;51.762;8.564;2024-03-07T10:28:40;7.60;99.90
15231;DHT22;32569;51.762;8.564;2024-03-07T10:31:07;7.50;99.90
15231;DHT22;32569;51.762;8.564;2024-03-07T10:33:36;7.40;99.90
15231;DHT22;32569;51.762;8.564;2024-03-07T10:36:04;7.30;99.90
15231;DHT22;32569;51.762;8.564;2024-03-07T10:38:35;7.20;99.90
15231;DHT22;32569;51.762;8.564;2024-03-07T10:41:05;7.20;99.90
15231;DHT22;32569;51.762;8.564;2024-03-07T10:43:35;7.30;99.90
15231;DHT22;32569;51.762;8.564;2024-03-07T10:46:05;7.40;99.90
15231;DHT22;32569;51.762;8.564;2024-03-07T10:48:38;7.40;99.90
15231;DHT22;32569;51.762;8.564;2024-03-07T10:51:10;7.40;99.90
15231;DHT22;32569;51.762;8.564;2024-03-07T10:53:44;7.50;99.90
15231;DHT22;32569;51.762;8.564;2024-03-07T10:56:21;7.60;99.90
15231;DHT22;32569;51.762;8.564;2024-03-07T10:58:58;7.60;99.90
15231;DHT22;32569;51.762;8.564;2024-03-07T11:01:31;7.60;99.90
15231;DHT22;32569;51.762;8.564;2024-03-07T11:03:59;7.50;99.90
15231;DHT22;32569;51.762;8.564;2024-03-07T11:06:30;7.50;99.90
15231;DHT22;32569;51.762;8.564;2024-03-07T11:09:00;7.60;99.90
15231;DHT22;32569;51.762;8.564;2024-03-07T11:11:30;7.60;99.90
15231;DHT22;32569;51.762;8.564;2024-03-07T11:13:58;7.70;99.90
15231;DHT22;32569;51.762;8.564;2024-03-07T11:16:25;7.60;99.90
15231;DHT22;32569;51.762;8.564;2024-03-07T11:19:17;7.70;99.90
15231;DHT22;32569;51.762;8.564;2024-03-07T11:21:44;7.80;99.90
15231;DHT22;32569;51.762;8.564;2024-03-07T11:24:23;7.90;99.90
15231;DHT22;32569;51.762;8.564;2024-03-07T11:26:52;7.90;99.90
15231;DHT22;32569;51.762;8.564;2024-03-07T11:29:38;8.00;99.90
15231;DHT22;32569;51.762;8.564;2024-03-07T11:32:06;7.90;99.90
15231;DHT22;32569;51.762;8.564;2024-03-07T11:34:37;7.90;99.90
15231;DHT22;32569;51.762;8.564;2024-03-07T11:37:05;7.80;99.90
15231;DHT22;32569;51.762;8.564;2024-03-07T11:39:39;7.70;99.90
15231;DHT22;32569;51.762;8.564;2024-03-07T11:42:08;7.70;99.90
15231;DHT22;32569;51.762;8.564;2024-03-07T11:44:34;7.70;99.90
15231;DHT22;32569;51.762;8.564;2024-03-07T11:47:05;7.70;99.90
15231;DHT22;32569;51.762;8.564;2024-03-07T11:49:35;7.70;99.90
15231;DHT22;32569;51.762;8.564;2024-03-07T11:52:02;7.70;99.90
15231;DHT22;32569;51.762;8.564;2024-03-07T11:54:30;7.70;99.90
15231;DHT22;32569;51.762;8.564;2024-03-07T11:56:58;7.70;99.90
15231;DHT22;32569;51.762;8.564;2024-03-07T11:59:26;7.70;99.90
15231;DHT22;32569;51.762;8.564;2024-03-07T12:02:00;7.60;99.90
15231;DHT22;32569;51.762;8.564;2024-03-07T12:04:28;7.70;99.90
15231;DHT22;32569;51.762;8.564;2024-03-07T12:06:55;7.70;99.90
15231;DHT22;32569;51.762;8.564;2024-03-07T12:09:22;7.70;99.90
15231;DHT22;32569;51.762;8.564;2024-03-07T12:11:50;7.50;99.90
15231;DHT22;32569;51.762;8.564;2024-03-07T12:14:18;7.50;99.90
15231;DHT22;32569;51.762;8.564;2024-03-07T12:16:46;7.50;99.90
15231;DHT22;32569;51.762;8.564;2024-03-07T12:19:13;7.60;99.90
15231;DHT22;32569;51.762;8.564;2024-03-07T12:21:43;7.60;99.90
15231;DHT22;32569;51.762;8.564;2024-03-07T12:24:13;7.60;99.90
15231;DHT22;32569;51.762;8.564;2024-03-07T12:26:40;7.60;99.90
15231;DHT22;32569;51.762;8.564;2024-03-07T12:29:08;7.70;99.90
15231;DHT22;32569;51.762;8.564;2024-03-07T12:31:37;7.90;99.90
15231;DHT22;32569;51.762;8.564;2024-03-07T12:34:05;8.00;99.90
15231;DHT22;32569;51.762;8.564;2024-03-07T12:36:34;8.00;99.90
15231;DHT22;32569;51.762;8.564;2024-03-07T12:39:21;8.10;99.90
15231;DHT22;32569;51.762;8.564;2024-03-07T12:41:51;8.10;99.90
15231;DHT22;32569;51.762;8.564;2024-03-07T12:44:18;8.10;99.90
15231;DHT22;32569;51.762;8.564;2024-03-07T12:46:46;8.30;99.90
15231;DHT22;32569;51.762;8.564;2024-03-07T12:49:14;8.30;99.90
15231;DHT22;32569;51.762;8.564;2024-03-07T12:51:42;8.40;99.90
15231;DHT22;32569;51.762;8.564;2024-03-07T12:54:08;8.50;99.90
15231;DHT22;32569;51.762;8.564;2024-03-07T12:56:35;8.50;99.80
15231;DHT22;32569;51.762;8.564;2024-03-07T12:59:02;8.60;99.40
15231;DHT22;32569;51.762;8.564;2024-03-07T13:01:29;8.70;99.70
15231;DHT22;32569;51.762;8.564;2024-03-07T13:03:58;8.80;99.90
15231;DHT22;32569;51.762;8.564;2024-03-07T13:06:27;8.80;99.90
15231;DHT22;32569;51.762;8.564;2024-03-07T13:08:55;8.70;99.90
15231;DHT22;32569;51.762;8.564;2024-03-07T13:11:23;8.60;99.90
15231;DHT22;32569;51.762;8.564;2024-03-07T13:13:53;8.50;99.90
15231;DHT22;32569;51.762;8.564;2024-03-07T13:16:20;8.50;99.90
15231;DHT22;32569;51.762;8.564;2024-03-07T13:18:47;8.50;99.90
15231;DHT22;32569;51.762;8.564;2024-03-07T13:21:14;8.50;99.90
15231;DHT22;32569;51.762;8.564;2024-03-07T13:23:44;8.50;99.90
15231;DHT22;32569;51.762;8.564;2024-03-07T13:26:11;8.50;99.90
15231;DHT22;32569;51.762;8.564;2024-03-07T13:28:42;8.30;99.90
15231;DHT22;32569;51.762;8.564;2024-03-07T13:31:09;8.40;99.90
15231;DHT22;32569;51.762;8.564;2024-03-07T13:33:37;8.40;99.90
15231;DHT22;32569;51.762;8.564;2024-03-07T13:36:04;8.30;99.90
15231;DHT22;32569;51.762;8.564;2024-03-07T13:38:32;8.50;99.90
15231;DHT22;32569;51.762;8.564;2024-03-07T13:41:01;8.60;99.90
15231;DHT22;32569;51.762;8.564;2024-03-07T13:43:29;8.70;99.90
15231;DHT22;32569;51.762;8.564;2024-03-07T13:45:56;8.80;99.90
15231;DHT22;32569;51.762;8.564;2024-03-07T13:48:23;8.90;99.90
15231;DHT22;32569;51.762;8.564;2024-03-07T13:50:50;8.90;99.60
15231;DHT22;32569;51.762;8.564;2024-03-07T13:53:19;8.80;99.90
15231;DHT22;32569;51.762;8.564;2024-03-07T13:56:32;8.90;99.20
15231;DHT22;32569;51.762;8.564;2024-03-07T13:59:20;8.80;99.70
15231;DHT22;32569;51.762;8.564;2024-03-07T14:01:59;8.80;99.60
15231;DHT22;32569;51.762;8.564;2024-03-07T14:05:10;8.80;99.30
15231;DHT22;32569;51.762;8.564;2024-03-07T14:07:50;8.60;99.20
15231;DHT22;32569;51.762;8.564;2024-03-07T14:10:54;8.60;99.10
15231;DHT22;32569;51.762;8.564;2024-03-07T14:13:42;8.60;99.30
15231;DHT22;32569;51.762;8.564;2024-03-07T14:16:29;8.50;99.00
15231;DHT22;32569;51.762;8.564;2024-03-07T14:19:50;8.70;99.50
15231;DHT22;32569;51.762;8.564;2024-03-07T14:22:47;8.80;98.90
15231;DHT22;32569;51.762;8.564;2024-03-07T14:25:44;8.70;99.00
15231;DHT22;32569;51.762;8.564;2024-03-07T14:31:10;8.70;98.90
15231;DHT22;32569;51.762;8.564;2024-03-07T14:33:50;8.60;98.20
15231;DHT22;32569;51.762;8.564;2024-03-07T14:36:33;8.60;98.00
15231;DHT22;32569;51.762;8.564;2024-03-07T14:39:02;8.70;97.70
15231;DHT22;32569;51.762;8.564;2024-03-07T14:41:48;8.70;97.70
15231;DHT22;32569;51.762;8.564;2024-03-07T14:44:16;8.70;97.30
15231;DHT22;32569;51.762;8.564;2024-03-07T14:46:46;8.60;98.00
15231;DHT22;32569;51.762;8.564;2024-03-07T14:49:16;8.70;98.10
15231;DHT22;32569;51.762;8.564;2024-03-07T14:51:44;8.70;98.10
15231;DHT22;32569;51.762;8.564;2024-03-07T14:54:12;8.70;98.30
15231;DHT22;32569;51.762;8.564;2024-03-07T14:56:39;8.70;99.10
15231;DHT22;32569;51.762;8.564;2024-03-07T14:59:06;8.70;99.40
15231;DHT22;32569;51.762;8.564;2024-03-07T15:01:33;8.60;99.40
15231;DHT22;32569;51.762;8.564;2024-03-07T15:04:01;8.70;99.30
15231;DHT22;32569;51.762;8.564;2024-03-07T15:06:33;8.60;99.50
15231;DHT22;32569;51.762;8.564;2024-03-07T15:08:59;8.60;99.60
15231;DHT22;32569;51.762;8.564;2024-03-07T15:11:29;8.60;99.10
15231;DHT22;32569;51.762;8.564;2024-03-07T15:14:00;8.50;99.20
15231;DHT22;32569;51.762;8.564;2024-03-07T15:16:30;8.40;99.20
15231;DHT22;32569;51.762;8.564;2024-03-07T15:19:01;8.40;99.40
15231;DHT22;32569;51.762;8.564;2024-03-07T15:21:28;8.40;99.40
15231;DHT22;32569;51.762;8.564;2024-03-07T15:23:55;8.40;99.40
15231;DHT22;32569;51.762;8.564;2024-03-07T15:26:22;8.40;99.10
15231;DHT22;32569;51.762;8.564;2024-03-07T15:28:49;8.40;98.90
15231;DHT22;32569;51.762;8.564;2024-03-07T15:31:16;8.30;98.60
15231;DHT22;32569;51.762;8.564;2024-03-07T15:33:45;8.30;98.30
15231;DHT22;32569;51.762;8.564;2024-03-07T15:36:13;8.30;98.10
15231;DHT22;32569;51.762;8.564;2024-03-07T15:38:40;8.30;98.60
15231;DHT22;32569;51.762;8.564;2024-03-07T15:41:07;8.30;97.90
15231;DHT22;32569;51.762;8.564;2024-03-07T15:43:37;8.30;97.80
15231;DHT22;32569;51.762;8.564;2024-03-07T15:46:04;8.30;97.60
15231;DHT22;32569;51.762;8.564;2024-03-07T15:48:31;8.30;97.50
15231;DHT22;32569;51.762;8.564;2024-03-07T15:50:58;8.30;97.60
15231;DHT22;32569;51.762;8.564;2024-03-07T15:53:26;8.30;97.30
15231;DHT22;32569;51.762;8.564;2024-03-07T15:55:53;8.20;97.20
15231;DHT22;32569;51.762;8.564;2024-03-07T15:58:19;8.20;97.40